Prospectville, Pennsylvania
Current Conditions -  °F | °C
As of 1:55 AM on Thursday 23 Oct 2014 (Local Time) from KLOM Reporting Station
Overcast Overcast  
Wind Chill: 52°   Ceiling: 2000
Heat Index: 52°   Visibility: 5mi
Dew Point: 48°   Wind: 8mph
Humidity: 88%   Direction: 330°NNW
Pressure: 29.76"   Gusts: NA
Location:  40.1823°N, 75.2133°W
Report Text: KLOM 230555Z AUTO 33007KT 5SM SCT013 BKN020 OVC027 11/09 A2976 RMK AO1 P0001
Loading
Personal Weather Stations






























Interactive Weather Map
Tropical Storm Tracking
New forecast layout! Learn more

10-Day Weather Forecast

Advertisements
Track Severe Weather on mobile